sensor_id;sensor_type;location;lat;lon;timestamp;pressure;altitude;pressure_sealevel;temperature
70969;BMP280;58630;43.022;25.100;2023-07-31T00:02:13;;;;30.70
70969;BMP280;58630;43.022;25.100;2023-07-31T00:04:38;;;;30.60
70969;BMP280;58630;43.022;25.100;2023-07-31T00:07:04;;;;30.60
70969;BMP280;58630;43.022;25.100;2023-07-31T00:09:32;;;;30.60
70969;BMP280;58630;43.022;25.100;2023-07-31T00:11:57;;;;30.60
70969;BMP280;58630;43.022;25.100;2023-07-31T00:14:23;;;;30.50
70969;BMP280;58630;43.022;25.100;2023-07-31T00:16:49;;;;30.50
70969;BMP280;58630;43.022;25.100;2023-07-31T00:19:14;;;;30.50
70969;BMP280;58630;43.022;25.100;2023-07-31T00:21:40;;;;30.50
70969;BMP280;58630;43.022;25.100;2023-07-31T00:24:05;;;;30.40
70969;BMP280;58630;43.022;25.100;2023-07-31T00:26:31;;;;30.40
70969;BMP280;58630;43.022;25.100;2023-07-31T00:28:56;;;;30.40
70969;BMP280;58630;43.022;25.100;2023-07-31T00:31:22;;;;30.30
70969;BMP280;58630;43.022;25.100;2023-07-31T00:33:47;;;;30.30
70969;BMP280;58630;43.022;25.100;2023-07-31T00:36:13;;;;30.30
70969;BMP280;58630;43.022;25.100;2023-07-31T00:38:39;;;;30.20
70969;BMP280;58630;43.022;25.100;2023-07-31T00:41:04;;;;30.20
70969;BMP280;58630;43.022;25.100;2023-07-31T00:43:30;;;;30.20
70969;BMP280;58630;43.022;25.100;2023-07-31T00:45:55;;;;30.10
70969;BMP280;58630;43.022;25.100;2023-07-31T00:48:21;;;;30.10
70969;BMP280;58630;43.022;25.100;2023-07-31T00:50:46;;;;30.10
70969;BMP280;58630;43.022;25.100;2023-07-31T00:53:12;;;;30.00
70969;BMP280;58630;43.022;25.100;2023-07-31T00:55:38;;;;30.00
70969;BMP280;58630;43.022;25.100;2023-07-31T00:58:04;;;;30.00
70969;BMP280;58630;43.022;25.100;2023-07-31T01:00:29;;;;30.00
70969;BMP280;58630;43.022;25.100;2023-07-31T01:02:55;;;;30.00
70969;BMP280;58630;43.022;25.100;2023-07-31T01:05:23;;;;30.00
70969;BMP280;58630;43.022;25.100;2023-07-31T01:07:59;;;;30.00
70969;BMP280;58630;43.022;25.100;2023-07-31T01:10:27;;;;30.00
70969;BMP280;58630;43.022;25.100;2023-07-31T01:12:54;;;;29.90
70969;BMP280;58630;43.022;25.100;2023-07-31T01:15:21;;;;29.90
70969;BMP280;58630;43.022;25.100;2023-07-31T01:17:47;;;;29.90
70969;BMP280;58630;43.022;25.100;2023-07-31T01:20:22;;;;29.90
70969;BMP280;58630;43.022;25.100;2023-07-31T01:28:10;;;;29.80
70969;BMP280;58630;43.022;25.100;2023-07-31T01:30:37;;;;29.80
70969;BMP280;58630;43.022;25.100;2023-07-31T01:33:04;;;;29.70
70969;BMP280;58630;43.022;25.100;2023-07-31T01:35:33;;;;29.70
70969;BMP280;58630;43.022;25.100;2023-07-31T01:37:59;;;;29.70
70969;BMP280;58630;43.022;25.100;2023-07-31T01:40:24;;;;29.70
70969;BMP280;58630;43.022;25.100;2023-07-31T01:42:50;;;;29.70
70969;BMP280;58630;43.022;25.100;2023-07-31T01:45:15;;;;29.70
70969;BMP280;58630;43.022;25.100;2023-07-31T01:47:41;;;;29.60
70969;BMP280;58630;43.022;25.100;2023-07-31T01:50:06;;;;29.60
70969;BMP280;58630;43.022;25.100;2023-07-31T01:52:32;;;;29.60
70969;BMP280;58630;43.022;25.100;2023-07-31T01:54:58;;;;29.60
70969;BMP280;58630;43.022;25.100;2023-07-31T01:57:23;;;;29.50
70969;BMP280;58630;43.022;25.100;2023-07-31T01:59:49;;;;29.50
70969;BMP280;58630;43.022;25.100;2023-07-31T02:02:14;;;;29.50
70969;BMP280;58630;43.022;25.100;2023-07-31T02:04:40;;;;29.50
70969;BMP280;58630;43.022;25.100;2023-07-31T02:07:06;;;;29.50
70969;BMP280;58630;43.022;25.100;2023-07-31T02:09:31;;;;29.50
70969;BMP280;58630;43.022;25.100;2023-07-31T02:11:57;;;;29.40
70969;BMP280;58630;43.022;25.100;2023-07-31T02:14:22;;;;29.40
70969;BMP280;58630;43.022;25.100;2023-07-31T02:16:48;;;;29.40
70969;BMP280;58630;43.022;25.100;2023-07-31T02:19:13;;;;29.40
70969;BMP280;58630;43.022;25.100;2023-07-31T02:21:39;;;;29.30
70969;BMP280;58630;43.022;25.100;2023-07-31T02:24:04;;;;29.30
70969;BMP280;58630;43.022;25.100;2023-07-31T02:26:30;;;;29.30
70969;BMP280;58630;43.022;25.100;2023-07-31T02:28:55;;;;29.30
70969;BMP280;58630;43.022;25.100;2023-07-31T02:31:21;;;;29.30
70969;BMP280;58630;43.022;25.100;2023-07-31T02:33:46;;;;29.30
70969;BMP280;58630;43.022;25.100;2023-07-31T02:36:12;;;;29.20
70969;BMP280;58630;43.022;25.100;2023-07-31T02:38:38;;;;29.20
70969;BMP280;58630;43.022;25.100;2023-07-31T02:41:03;;;;29.20
70969;BMP280;58630;43.022;25.100;2023-07-31T02:43:29;;;;29.10
70969;BMP280;58630;43.022;25.100;2023-07-31T02:45:54;;;;29.10
70969;BMP280;58630;43.022;25.100;2023-07-31T02:48:20;;;;29.00
70969;BMP280;58630;43.022;25.100;2023-07-31T02:50:45;;;;29.00
70969;BMP280;58630;43.022;25.100;2023-07-31T02:53:11;;;;29.00
70969;BMP280;58630;43.022;25.100;2023-07-31T02:55:36;;;;29.00
70969;BMP280;58630;43.022;25.100;2023-07-31T02:58:02;;;;29.00
70969;BMP280;58630;43.022;25.100;2023-07-31T03:00:28;;;;29.00
70969;BMP280;58630;43.022;25.100;2023-07-31T03:02:53;;;;28.90
70969;BMP280;58630;43.022;25.100;2023-07-31T03:05:19;;;;28.90
70969;BMP280;58630;43.022;25.100;2023-07-31T03:07:44;;;;28.90
70969;BMP280;58630;43.022;25.100;2023-07-31T03:10:10;;;;28.90
70969;BMP280;58630;43.022;25.100;2023-07-31T03:12:35;;;;28.90
70969;BMP280;58630;43.022;25.100;2023-07-31T03:15:01;;;;28.90
70969;BMP280;58630;43.022;25.100;2023-07-31T03:17:26;;;;28.90
70969;BMP280;58630;43.022;25.100;2023-07-31T03:19:52;;;;28.80
70969;BMP280;58630;43.022;25.100;2023-07-31T03:22:17;;;;28.80
70969;BMP280;58630;43.022;25.100;2023-07-31T03:24:43;;;;28.80
70969;BMP280;58630;43.022;25.100;2023-07-31T03:27:08;;;;28.80
70969;BMP280;58630;43.022;25.100;2023-07-31T03:29:34;;;;28.80
70969;BMP280;58630;43.022;25.100;2023-07-31T03:32:00;;;;28.80
70969;BMP280;58630;43.022;25.100;2023-07-31T03:34:26;;;;28.70
70969;BMP280;58630;43.022;25.100;2023-07-31T03:36:51;;;;28.70
70969;BMP280;58630;43.022;25.100;2023-07-31T03:39:17;;;;28.70
70969;BMP280;58630;43.022;25.100;2023-07-31T03:41:43;;;;28.70
70969;BMP280;58630;43.022;25.100;2023-07-31T03:44:08;;;;28.60
70969;BMP280;58630;43.022;25.100;2023-07-31T03:46:34;;;;28.60
70969;BMP280;58630;43.022;25.100;2023-07-31T03:49:01;;;;28.60
70969;BMP280;58630;43.022;25.100;2023-07-31T03:51:26;;;;28.60
70969;BMP280;58630;43.022;25.100;2023-07-31T03:53:52;;;;28.50
70969;BMP280;58630;43.022;25.100;2023-07-31T03:56:18;;;;28.50
70969;BMP280;58630;43.022;25.100;2023-07-31T03:58:43;;;;28.50
70969;BMP280;58630;43.022;25.100;2023-07-31T04:01:09;;;;28.50
70969;BMP280;58630;43.022;25.100;2023-07-31T04:03:34;;;;28.50
70969;BMP280;58630;43.022;25.100;2023-07-31T04:06:00;;;;28.50
70969;BMP280;58630;43.022;25.100;2023-07-31T04:08:25;;;;28.50
70969;BMP280;58630;43.022;25.100;2023-07-31T04:10:51;;;;28.50
70969;BMP280;58630;43.022;25.100;2023-07-31T04:13:16;;;;28.50
70969;BMP280;58630;43.022;25.100;2023-07-31T04:15:42;;;;28.50
70969;BMP280;58630;43.022;25.100;2023-07-31T04:18:07;;;;28.40
70969;BMP280;58630;43.022;25.100;2023-07-31T04:20:33;;;;28.40
70969;BMP280;58630;43.022;25.100;2023-07-31T04:22:58;;;;28.40
70969;BMP280;58630;43.022;25.100;2023-07-31T04:25:24;;;;28.40
70969;BMP280;58630;43.022;25.100;2023-07-31T04:27:49;;;;28.40
70969;BMP280;58630;43.022;25.100;2023-07-31T04:30:15;;;;28.40
70969;BMP280;58630;43.022;25.100;2023-07-31T04:32:41;;;;28.40
70969;BMP280;58630;43.022;25.100;2023-07-31T04:35:06;;;;28.30
70969;BMP280;58630;43.022;25.100;2023-07-31T04:37:32;;;;28.30
70969;BMP280;58630;43.022;25.100;2023-07-31T04:39:57;;;;28.30
70969;BMP280;58630;43.022;25.100;2023-07-31T04:42:23;;;;28.30
70969;BMP280;58630;43.022;25.100;2023-07-31T04:44:48;;;;28.30
70969;BMP280;58630;43.022;25.100;2023-07-31T04:47:14;;;;28.30
70969;BMP280;58630;43.022;25.100;2023-07-31T04:49:39;;;;28.20
70969;BMP280;58630;43.022;25.100;2023-07-31T04:52:05;;;;28.20
70969;BMP280;58630;43.022;25.100;2023-07-31T04:54:31;;;;28.20
70969;BMP280;58630;43.022;25.100;2023-07-31T04:56:56;;;;28.20
70969;BMP280;58630;43.022;25.100;2023-07-31T04:59:22;;;;28.20
70969;BMP280;58630;43.022;25.100;2023-07-31T05:01:47;;;;28.20
70969;BMP280;58630;43.022;25.100;2023-07-31T05:04:13;;;;28.10
70969;BMP280;58630;43.022;25.100;2023-07-31T05:06:41;;;;28.10
70969;BMP280;58630;43.022;25.100;2023-07-31T05:09:07;;;;28.10
70969;BMP280;58630;43.022;25.100;2023-07-31T05:11:34;;;;28.10
70969;BMP280;58630;43.022;25.100;2023-07-31T05:14:00;;;;28.10
70969;BMP280;58630;43.022;25.100;2023-07-31T05:16:25;;;;28.10
70969;BMP280;58630;43.022;25.100;2023-07-31T05:18:51;;;;28.10
70969;BMP280;58630;43.022;25.100;2023-07-31T05:21:16;;;;28.10
70969;BMP280;58630;43.022;25.100;2023-07-31T05:23:42;;;;28.10
70969;BMP280;58630;43.022;25.100;2023-07-31T05:26:07;;;;28.00
70969;BMP280;58630;43.022;25.100;2023-07-31T05:28:35;;;;28.00
70969;BMP280;58630;43.022;25.100;2023-07-31T05:31:01;;;;28.10
70969;BMP280;58630;43.022;25.100;2023-07-31T05:33:27;;;;28.00
70969;BMP280;58630;43.022;25.100;2023-07-31T05:35:52;;;;28.00
70969;BMP280;58630;43.022;25.100;2023-07-31T05:38:18;;;;28.00
70969;BMP280;58630;43.022;25.100;2023-07-31T05:40:44;;;;28.00
70969;BMP280;58630;43.022;25.100;2023-07-31T05:43:09;;;;28.00
70969;BMP280;58630;43.022;25.100;2023-07-31T05:45:35;;;;28.00
70969;BMP280;58630;43.022;25.100;2023-07-31T05:48:01;;;;27.90
70969;BMP280;58630;43.022;25.100;2023-07-31T05:50:26;;;;27.90
70969;BMP280;58630;43.022;25.100;2023-07-31T05:52:52;;;;27.90
70969;BMP280;58630;43.022;25.100;2023-07-31T05:55:17;;;;27.90
70969;BMP280;58630;43.022;25.100;2023-07-31T05:57:43;;;;27.90
70969;BMP280;58630;43.022;25.100;2023-07-31T06:00:11;;;;27.90
70969;BMP280;58630;43.022;25.100;2023-07-31T06:02:37;;;;27.90
70969;BMP280;58630;43.022;25.100;2023-07-31T06:05:03;;;;27.90
70969;BMP280;58630;43.022;25.100;2023-07-31T06:07:29;;;;27.90
70969;BMP280;58630;43.022;25.100;2023-07-31T06:09:55;;;;27.80
70969;BMP280;58630;43.022;25.100;2023-07-31T06:12:20;;;;27.80
70969;BMP280;58630;43.022;25.100;2023-07-31T06:14:46;;;;27.80
70969;BMP280;58630;43.022;25.100;2023-07-31T06:17:11;;;;27.80
70969;BMP280;58630;43.022;25.100;2023-07-31T06:19:37;;;;27.80
70969;BMP280;58630;43.022;25.100;2023-07-31T06:22:03;;;;27.80
70969;BMP280;58630;43.022;25.100;2023-07-31T06:24:28;;;;27.80
70969;BMP280;58630;43.022;25.100;2023-07-31T06:26:54;;;;27.80
70969;BMP280;58630;43.022;25.100;2023-07-31T06:29:20;;;;27.80
70969;BMP280;58630;43.022;25.100;2023-07-31T06:31:46;;;;27.80
70969;BMP280;58630;43.022;25.100;2023-07-31T06:34:11;;;;27.80
70969;BMP280;58630;43.022;25.100;2023-07-31T06:36:37;;;;27.80
70969;BMP280;58630;43.022;25.100;2023-07-31T06:39:02;;;;27.80
70969;BMP280;58630;43.022;25.100;2023-07-31T06:41:29;;;;27.80
70969;BMP280;58630;43.022;25.100;2023-07-31T06:43:54;;;;27.80
70969;BMP280;58630;43.022;25.100;2023-07-31T06:46:20;;;;27.80
70969;BMP280;58630;43.022;25.100;2023-07-31T06:48:45;;;;27.80
70969;BMP280;58630;43.022;25.100;2023-07-31T06:51:11;;;;27.80
70969;BMP280;58630;43.022;25.100;2023-07-31T06:53:36;;;;27.80
70969;BMP280;58630;43.022;25.100;2023-07-31T06:56:02;;;;27.80
70969;BMP280;58630;43.022;25.100;2023-07-31T06:58:28;;;;27.80
70969;BMP280;58630;43.022;25.100;2023-07-31T07:00:53;;;;27.80
70969;BMP280;58630;43.022;25.100;2023-07-31T07:03:19;;;;27.80
70969;BMP280;58630;43.022;25.100;2023-07-31T07:05:44;;;;27.80
70969;BMP280;58630;43.022;25.100;2023-07-31T07:08:10;;;;27.80
70969;BMP280;58630;43.022;25.100;2023-07-31T07:10:35;;;;27.80
70969;BMP280;58630;43.022;25.100;2023-07-31T07:13:02;;;;27.80
70969;BMP280;58630;43.022;25.100;2023-07-31T07:15:27;;;;27.80
70969;BMP280;58630;43.022;25.100;2023-07-31T07:17:54;;;;27.80
70969;BMP280;58630;43.022;25.100;2023-07-31T07:20:19;;;;27.90
70969;BMP280;58630;43.022;25.100;2023-07-31T07:22:45;;;;27.90
70969;BMP280;58630;43.022;25.100;2023-07-31T07:25:11;;;;27.90
70969;BMP280;58630;43.022;25.100;2023-07-31T07:27:36;;;;27.90
70969;BMP280;58630;43.022;25.100;2023-07-31T07:30:02;;;;27.90
70969;BMP280;58630;43.022;25.100;2023-07-31T07:32:27;;;;27.80
70969;BMP280;58630;43.022;25.100;2023-07-31T07:34:53;;;;27.90
70969;BMP280;58630;43.022;25.100;2023-07-31T07:37:19;;;;27.80
70969;BMP280;58630;43.022;25.100;2023-07-31T07:39:44;;;;27.90
70969;BMP280;58630;43.022;25.100;2023-07-31T07:42:10;;;;27.80
70969;BMP280;58630;43.022;25.100;2023-07-31T07:44:35;;;;27.90
70969;BMP280;58630;43.022;25.100;2023-07-31T07:47:01;;;;27.90
70969;BMP280;58630;43.022;25.100;2023-07-31T07:49:27;;;;27.90
70969;BMP280;58630;43.022;25.100;2023-07-31T07:51:52;;;;27.90
70969;BMP280;58630;43.022;25.100;2023-07-31T07:54:18;;;;27.90
70969;BMP280;58630;43.022;25.100;2023-07-31T07:56:45;;;;27.90
70969;BMP280;58630;43.022;25.100;2023-07-31T07:59:11;;;;27.90
70969;BMP280;58630;43.022;25.100;2023-07-31T08:01:36;;;;27.90
70969;BMP280;58630;43.022;25.100;2023-07-31T08:04:02;;;;27.90
70969;BMP280;58630;43.022;25.100;2023-07-31T08:06:27;;;;28.00
70969;BMP280;58630;43.022;25.100;2023-07-31T08:08:55;;;;28.00
70969;BMP280;58630;43.022;25.100;2023-07-31T08:11:20;;;;28.00
70969;BMP280;58630;43.022;25.100;2023-07-31T08:13:48;;;;28.00
70969;BMP280;58630;43.022;25.100;2023-07-31T08:16:13;;;;28.00
70969;BMP280;58630;43.022;25.100;2023-07-31T08:18:39;;;;28.00
70969;BMP280;58630;43.022;25.100;2023-07-31T08:21:05;;;;28.00
70969;BMP280;58630;43.022;25.100;2023-07-31T08:23:31;;;;28.00
70969;BMP280;58630;43.022;25.100;2023-07-31T08:25:56;;;;28.00
70969;BMP280;58630;43.022;25.100;2023-07-31T08:28:22;;;;28.00
70969;BMP280;58630;43.022;25.100;2023-07-31T08:30:47;;;;28.00
70969;BMP280;58630;43.022;25.100;2023-07-31T08:33:13;;;;28.00
70969;BMP280;58630;43.022;25.100;2023-07-31T08:35:38;;;;28.00
70969;BMP280;58630;43.022;25.100;2023-07-31T08:38:04;;;;28.00
70969;BMP280;58630;43.022;25.100;2023-07-31T08:40:30;;;;28.00
70969;BMP280;58630;43.022;25.100;2023-07-31T08:42:55;;;;28.00
70969;BMP280;58630;43.022;25.100;2023-07-31T08:45:27;;;;28.00
70969;BMP280;58630;43.022;25.100;2023-07-31T08:47:53;;;;28.00
70969;BMP280;58630;43.022;25.100;2023-07-31T08:50:19;;;;28.10
70969;BMP280;58630;43.022;25.100;2023-07-31T08:52:46;;;;28.10
70969;BMP280;58630;43.022;25.100;2023-07-31T08:55:11;;;;28.10
70969;BMP280;58630;43.022;25.100;2023-07-31T08:57:37;;;;28.10
70969;BMP280;58630;43.022;25.100;2023-07-31T09:00:04;;;;28.10
70969;BMP280;58630;43.022;25.100;2023-07-31T09:03:26;;;;28.10
70969;BMP280;58630;43.022;25.100;2023-07-31T09:05:51;;;;28.20
70969;BMP280;58630;43.022;25.100;2023-07-31T09:08:19;;;;28.20
70969;BMP280;58630;43.022;25.100;2023-07-31T09:10:45;;;;28.20
70969;BMP280;58630;43.022;25.100;2023-07-31T09:13:14;;;;28.20
70969;BMP280;58630;43.022;25.100;2023-07-31T09:15:40;;;;28.30
70969;BMP280;58630;43.022;25.100;2023-07-31T09:18:06;;;;28.30
70969;BMP280;58630;43.022;25.100;2023-07-31T09:20:31;;;;28.40
70969;BMP280;58630;43.022;25.100;2023-07-31T09:25:33;;;;28.40
70969;BMP280;58630;43.022;25.100;2023-07-31T09:28:00;;;;28.50
70969;BMP280;58630;43.022;25.100;2023-07-31T09:30:26;;;;28.50
70969;BMP280;58630;43.022;25.100;2023-07-31T09:32:59;;;;28.50
70969;BMP280;58630;43.022;25.100;2023-07-31T09:35:29;;;;28.60
70969;BMP280;58630;43.022;25.100;2023-07-31T09:37:59;;;;28.70
70969;BMP280;58630;43.022;25.100;2023-07-31T09:40:46;;;;28.70
70969;BMP280;58630;43.022;25.100;2023-07-31T09:43:11;;;;28.70
70969;BMP280;58630;43.022;25.100;2023-07-31T09:45:38;;;;28.70
70969;BMP280;58630;43.022;25.100;2023-07-31T09:48:09;;;;28.70
70969;BMP280;58630;43.022;25.100;2023-07-31T09:50:39;;;;28.70
70969;BMP280;58630;43.022;25.100;2023-07-31T09:53:05;;;;28.70
70969;BMP280;58630;43.022;25.100;2023-07-31T09:55:31;;;;28.70
70969;BMP280;58630;43.022;25.100;2023-07-31T09:57:59;;;;28.70
70969;BMP280;58630;43.022;25.100;2023-07-31T10:00:28;;;;28.70
70969;BMP280;58630;43.022;25.100;2023-07-31T10:02:55;;;;28.70
70969;BMP280;58630;43.022;25.100;2023-07-31T10:05:23;;;;28.80
70969;BMP280;58630;43.022;25.100;2023-07-31T10:07:54;;;;28.70
70969;BMP280;58630;43.022;25.100;2023-07-31T10:10:20;;;;28.80
70969;BMP280;58630;43.022;25.100;2023-07-31T10:12:46;;;;28.80
70969;BMP280;58630;43.022;25.100;2023-07-31T10:15:13;;;;28.80
70969;BMP280;58630;43.022;25.100;2023-07-31T10:17:39;;;;28.80
70969;BMP280;58630;43.022;25.100;2023-07-31T10:20:05;;;;28.80
70969;BMP280;58630;43.022;25.100;2023-07-31T10:22:32;;;;28.80
70969;BMP280;58630;43.022;25.100;2023-07-31T10:24:58;;;;28.70
70969;BMP280;58630;43.022;25.100;2023-07-31T10:27:24;;;;28.80
70969;BMP280;58630;43.022;25.100;2023-07-31T10:29:50;;;;28.80
70969;BMP280;58630;43.022;25.100;2023-07-31T10:32:15;;;;28.80
70969;BMP280;58630;43.022;25.100;2023-07-31T10:34:42;;;;28.80
70969;BMP280;58630;43.022;25.100;2023-07-31T10:37:24;;;;28.80
70969;BMP280;58630;43.022;25.100;2023-07-31T10:39:56;;;;28.80
70969;BMP280;58630;43.022;25.100;2023-07-31T10:42:32;;;;28.80
70969;BMP280;58630;43.022;25.100;2023-07-31T10:45:00;;;;28.80
70969;BMP280;58630;43.022;25.100;2023-07-31T10:47:25;;;;28.80
70969;BMP280;58630;43.022;25.100;2023-07-31T10:49:51;;;;28.80
70969;BMP280;58630;43.022;25.100;2023-07-31T10:52:20;;;;28.70
70969;BMP280;58630;43.022;25.100;2023-07-31T10:54:49;;;;28.70
70969;BMP280;58630;43.022;25.100;2023-07-31T10:57:21;;;;28.70
70969;BMP280;58630;43.022;25.100;2023-07-31T10:59:50;;;;28.70
70969;BMP280;58630;43.022;25.100;2023-07-31T11:02:27;;;;28.70
70969;BMP280;58630;43.022;25.100;2023-07-31T11:05:06;;;;28.70
70969;BMP280;58630;43.022;25.100;2023-07-31T11:07:49;;;;28.60
70969;BMP280;58630;43.022;25.100;2023-07-31T11:10:18;;;;28.60
70969;BMP280;58630;43.022;25.100;2023-07-31T11:12:47;;;;28.60
70969;BMP280;58630;43.022;25.100;2023-07-31T11:15:13;;;;28.60
70969;BMP280;58630;43.022;25.100;2023-07-31T11:17:39;;;;28.70
70969;BMP280;58630;43.022;25.100;2023-07-31T11:20:05;;;;28.70
70969;BMP280;58630;43.022;25.100;2023-07-31T11:22:31;;;;28.70
70969;BMP280;58630;43.022;25.100;2023-07-31T11:24:57;;;;28.70
70969;BMP280;58630;43.022;25.100;2023-07-31T11:27:23;;;;28.70
70969;BMP280;58630;43.022;25.100;2023-07-31T11:29:52;;;;28.70
70969;BMP280;58630;43.022;25.100;2023-07-31T11:32:18;;;;28.70
70969;BMP280;58630;43.022;25.100;2023-07-31T11:34:53;;;;28.70
70969;BMP280;58630;43.022;25.100;2023-07-31T11:37:18;;;;28.70
70969;BMP280;58630;43.022;25.100;2023-07-31T11:39:57;;;;28.70
70969;BMP280;58630;43.022;25.100;2023-07-31T11:42:23;;;;28.70
70969;BMP280;58630;43.022;25.100;2023-07-31T11:44:49;;;;28.80
70969;BMP280;58630;43.022;25.100;2023-07-31T11:47:14;;;;28.80
70969;BMP280;58630;43.022;25.100;2023-07-31T11:49:40;;;;28.80
70969;BMP280;58630;43.022;25.100;2023-07-31T11:52:05;;;;28.90
70969;BMP280;58630;43.022;25.100;2023-07-31T11:54:31;;;;28.90
70969;BMP280;58630;43.022;25.100;2023-07-31T11:56:57;;;;29.00
70969;BMP280;58630;43.022;25.100;2023-07-31T11:59:23;;;;29.00
70969;BMP280;58630;43.022;25.100;2023-07-31T12:01:49;;;;29.10
70969;BMP280;58630;43.022;25.100;2023-07-31T12:04:18;;;;29.20
70969;BMP280;58630;43.022;25.100;2023-07-31T12:06:45;;;;29.20
70969;BMP280;58630;43.022;25.100;2023-07-31T12:09:10;;;;29.20
70969;BMP280;58630;43.022;25.100;2023-07-31T12:11:46;;;;29.20
70969;BMP280;58630;43.022;25.100;2023-07-31T12:14:21;;;;29.20
70969;BMP280;58630;43.022;25.100;2023-07-31T12:17:08;;;;29.20
70969;BMP280;58630;43.022;25.100;2023-07-31T12:19:33;;;;29.30
70969;BMP280;58630;43.022;25.100;2023-07-31T12:22:00;;;;29.30
70969;BMP280;58630;43.022;25.100;2023-07-31T12:24:26;;;;29.30
70969;BMP280;58630;43.022;25.100;2023-07-31T12:26:52;;;;29.30
70969;BMP280;58630;43.022;25.100;2023-07-31T12:29:17;;;;29.40
70969;BMP280;58630;43.022;25.100;2023-07-31T12:31:43;;;;29.40
70969;BMP280;58630;43.022;25.100;2023-07-31T12:34:15;;;;29.40
70969;BMP280;58630;43.022;25.100;2023-07-31T12:36:42;;;;29.50
70969;BMP280;58630;43.022;25.100;2023-07-31T12:39:08;;;;29.50
70969;BMP280;58630;43.022;25.100;2023-07-31T12:41:33;;;;29.70
70969;BMP280;58630;43.022;25.100;2023-07-31T12:43:59;;;;29.90
70969;BMP280;58630;43.022;25.100;2023-07-31T12:46:25;;;;30.00
70969;BMP280;58630;43.022;25.100;2023-07-31T12:48:50;;;;30.20
70969;BMP280;58630;43.022;25.100;2023-07-31T12:51:16;;;;30.30
70969;BMP280;58630;43.022;25.100;2023-07-31T12:53:41;;;;30.30
70969;BMP280;58630;43.022;25.100;2023-07-31T12:56:07;;;;30.20
70969;BMP280;58630;43.022;25.100;2023-07-31T12:58:32;;;;30.10
70969;BMP280;58630;43.022;25.100;2023-07-31T13:00:58;;;;30.10
70969;BMP280;58630;43.022;25.100;2023-07-31T13:03:23;;;;30.10
70969;BMP280;58630;43.022;25.100;2023-07-31T13:05:49;;;;30.20
70969;BMP280;58630;43.022;25.100;2023-07-31T13:08:15;;;;30.40
70969;BMP280;58630;43.022;25.100;2023-07-31T13:10:42;;;;30.60
70969;BMP280;58630;43.022;25.100;2023-07-31T13:13:09;;;;30.80
70969;BMP280;58630;43.022;25.100;2023-07-31T13:15:34;;;;30.80
70969;BMP280;58630;43.022;25.100;2023-07-31T13:18:00;;;;31.00
70969;BMP280;58630;43.022;25.100;2023-07-31T13:20:25;;;;31.20
70969;BMP280;58630;43.022;25.100;2023-07-31T13:22:51;;;;31.40
70969;BMP280;58630;43.022;25.100;2023-07-31T13:25:16;;;;31.40
70969;BMP280;58630;43.022;25.100;2023-07-31T13:27:42;;;;31.50
70969;BMP280;58630;43.022;25.100;2023-07-31T13:30:07;;;;31.70
70969;BMP280;58630;43.022;25.100;2023-07-31T13:32:33;;;;31.90
70969;BMP280;58630;43.022;25.100;2023-07-31T13:34:59;;;;31.90
70969;BMP280;58630;43.022;25.100;2023-07-31T13:37:24;;;;31.90
70969;BMP280;58630;43.022;25.100;2023-07-31T13:39:50;;;;32.00
70969;BMP280;58630;43.022;25.100;2023-07-31T13:42:15;;;;32.10
70969;BMP280;58630;43.022;25.100;2023-07-31T13:44:41;;;;32.30
70969;BMP280;58630;43.022;25.100;2023-07-31T13:47:07;;;;32.40
70969;BMP280;58630;43.022;25.100;2023-07-31T13:49:33;;;;32.50
70969;BMP280;58630;43.022;25.100;2023-07-31T13:51:59;;;;32.50
70969;BMP280;58630;43.022;25.100;2023-07-31T13:54:25;;;;32.70
70969;BMP280;58630;43.022;25.100;2023-07-31T13:56:51;;;;32.80
70969;BMP280;58630;43.022;25.100;2023-07-31T13:59:17;;;;32.90
70969;BMP280;58630;43.022;25.100;2023-07-31T14:01:43;;;;33.10
70969;BMP280;58630;43.022;25.100;2023-07-31T14:04:08;;;;33.10
70969;BMP280;58630;43.022;25.100;2023-07-31T14:06:34;;;;33.20
70969;BMP280;58630;43.022;25.100;2023-07-31T14:09:00;;;;33.40
70969;BMP280;58630;43.022;25.100;2023-07-31T14:11:25;;;;33.40
70969;BMP280;58630;43.022;25.100;2023-07-31T14:13:51;;;;33.40
70969;BMP280;58630;43.022;25.100;2023-07-31T14:16:17;;;;33.40
70969;BMP280;58630;43.022;25.100;2023-07-31T14:18:42;;;;33.30
70969;BMP280;58630;43.022;25.100;2023-07-31T14:21:08;;;;33.50
70969;BMP280;58630;43.022;25.100;2023-07-31T14:23:34;;;;33.60
70969;BMP280;58630;43.022;25.100;2023-07-31T14:25:59;;;;33.80
70969;BMP280;58630;43.022;25.100;2023-07-31T14:28:25;;;;33.90
70969;BMP280;58630;43.022;25.100;2023-07-31T14:30:50;;;;33.90
70969;BMP280;58630;43.022;25.100;2023-07-31T14:33:16;;;;34.00
70969;BMP280;58630;43.022;25.100;2023-07-31T14:35:42;;;;34.20
70969;BMP280;58630;43.022;25.100;2023-07-31T14:38:07;;;;34.30
70969;BMP280;58630;43.022;25.100;2023-07-31T14:40:33;;;;34.30
70969;BMP280;58630;43.022;25.100;2023-07-31T14:42:58;;;;34.10
70969;BMP280;58630;43.022;25.100;2023-07-31T14:45:24;;;;33.80
70969;BMP280;58630;43.022;25.100;2023-07-31T14:47:49;;;;33.60
70969;BMP280;58630;43.022;25.100;2023-07-31T14:50:15;;;;33.60
70969;BMP280;58630;43.022;25.100;2023-07-31T14:52:41;;;;33.70
70969;BMP280;58630;43.022;25.100;2023-07-31T14:55:07;;;;33.70
70969;BMP280;58630;43.022;25.100;2023-07-31T14:57:33;;;;33.80
70969;BMP280;58630;43.022;25.100;2023-07-31T14:59:59;;;;33.90
70969;BMP280;58630;43.022;25.100;2023-07-31T15:02:25;;;;33.80
70969;BMP280;58630;43.022;25.100;2023-07-31T15:04:51;;;;34.10
70969;BMP280;58630;43.022;25.100;2023-07-31T15:07:16;;;;34.20
70969;BMP280;58630;43.022;25.100;2023-07-31T15:09:42;;;;34.50
70969;BMP280;58630;43.022;25.100;2023-07-31T15:12:08;;;;34.70
70969;BMP280;58630;43.022;25.100;2023-07-31T15:14:33;;;;34.80
70969;BMP280;58630;43.022;25.100;2023-07-31T15:16:59;;;;35.00
70969;BMP280;58630;43.022;25.100;2023-07-31T15:19:25;;;;35.00
70969;BMP280;58630;43.022;25.100;2023-07-31T15:21:50;;;;34.90
70969;BMP280;58630;43.022;25.100;2023-07-31T15:24:16;;;;34.70
70969;BMP280;58630;43.022;25.100;2023-07-31T15:26:42;;;;34.70
70969;BMP280;58630;43.022;25.100;2023-07-31T15:29:08;;;;34.60
70969;BMP280;58630;43.022;25.100;2023-07-31T15:31:35;;;;34.60
70969;BMP280;58630;43.022;25.100;2023-07-31T15:34:00;;;;34.60
70969;BMP280;58630;43.022;25.100;2023-07-31T15:36:26;;;;34.50
70969;BMP280;58630;43.022;25.100;2023-07-31T15:38:51;;;;34.50
70969;BMP280;58630;43.022;25.100;2023-07-31T15:41:17;;;;34.40
70969;BMP280;58630;43.022;25.100;2023-07-31T15:43:43;;;;34.30
70969;BMP280;58630;43.022;25.100;2023-07-31T15:46:08;;;;34.40
70969;BMP280;58630;43.022;25.100;2023-07-31T15:48:34;;;;34.60